Kulm, North Dakota
Current Conditions -  °F | °C
As of 8:17 AM on Sunday 25 Jan 2015 (Local Time) from KJMS Reporting Station
Overcast Overcast  
Wind Chill: 13°   Ceiling: 1500
Heat Index: 20°   Visibility: 10mi
Dew Point: 16°   Wind: 5mph
Humidity: 85%   Direction: 350°N
Pressure: 29.98"   Gusts: NA
Location:  46.3°N, 98.95°W
Report Text: KJMS 251417Z AUTO 35004KT 10SM OVC015 M07/M09 A2998 RMK AO2 T10671089
Loading
Personal Weather Stations






























Interactive Weather Map New forecast layout! Learn more

10-Day Weather Forecast

Advertisements
Track Severe Weather on mobile